sensor_id;sensor_type;location;lat;lon;timestamp;temperature;humidity
23591;DHT22;11973;52.098;7.582;2022-08-06T00:02:27;14.70;77.50
23591;DHT22;11973;52.098;7.582;2022-08-06T00:04:54;14.70;77.70
23591;DHT22;11973;52.098;7.582;2022-08-06T00:07:20;14.60;77.70
23591;DHT22;11973;52.098;7.582;2022-08-06T00:09:46;14.60;77.80
23591;DHT22;11973;52.098;7.582;2022-08-06T00:12:12;14.60;77.90
23591;DHT22;11973;52.098;7.582;2022-08-06T00:14:38;14.50;77.90
23591;DHT22;11973;52.098;7.582;2022-08-06T00:17:03;14.50;78.00
23591;DHT22;11973;52.098;7.582;2022-08-06T00:19:30;14.50;78.00
23591;DHT22;11973;52.098;7.582;2022-08-06T00:21:55;14.40;78.00
23591;DHT22;11973;52.098;7.582;2022-08-06T00:24:21;14.40;78.10
23591;DHT22;11973;52.098;7.582;2022-08-06T00:26:47;14.40;78.20
23591;DHT22;11973;52.098;7.582;2022-08-06T00:29:13;14.30;78.20
23591;DHT22;11973;52.098;7.582;2022-08-06T00:31:39;14.30;78.30
23591;DHT22;11973;52.098;7.582;2022-08-06T00:34:05;14.30;78.40
23591;DHT22;11973;52.098;7.582;2022-08-06T00:36:32;14.20;78.40
23591;DHT22;11973;52.098;7.582;2022-08-06T00:39:00;14.10;78.40
23591;DHT22;11973;52.098;7.582;2022-08-06T00:41:28;14.10;78.50
23591;DHT22;11973;52.098;7.582;2022-08-06T00:43:54;14.10;78.60
23591;DHT22;11973;52.098;7.582;2022-08-06T00:46:22;14.00;78.60
23591;DHT22;11973;52.098;7.582;2022-08-06T00:48:48;14.00;78.70
23591;DHT22;11973;52.098;7.582;2022-08-06T00:51:14;14.00;78.80
23591;DHT22;11973;52.098;7.582;2022-08-06T00:53:40;13.90;78.80
23591;DHT22;11973;52.098;7.582;2022-08-06T00:56:06;13.90;78.90
23591;DHT22;11973;52.098;7.582;2022-08-06T00:58:32;13.80;78.90
23591;DHT22;11973;52.098;7.582;2022-08-06T01:00:58;13.80;79.00
23591;DHT22;11973;52.098;7.582;2022-08-06T01:03:24;13.90;79.90
23591;DHT22;11973;52.098;7.582;2022-08-06T01:05:49;13.70;79.10
23591;DHT22;11973;52.098;7.582;2022-08-06T01:08:15;13.70;79.10
23591;DHT22;11973;52.098;7.582;2022-08-06T01:10:41;13.70;79.30
23591;DHT22;11973;52.098;7.582;2022-08-06T01:13:08;13.60;79.20
23591;DHT22;11973;52.098;7.582;2022-08-06T01:15:34;13.60;79.30
23591;DHT22;11973;52.098;7.582;2022-08-06T01:18:23;13.60;79.40
23591;DHT22;11973;52.098;7.582;2022-08-06T01:24:17;13.50;79.40
23591;DHT22;11973;52.098;7.582;2022-08-06T01:27:11;13.50;79.60
23591;DHT22;11973;52.098;7.582;2022-08-06T01:29:39;13.40;79.60
23591;DHT22;11973;52.098;7.582;2022-08-06T01:32:09;13.30;79.60
23591;DHT22;11973;52.098;7.582;2022-08-06T01:34:39;13.30;79.70
23591;DHT22;11973;52.098;7.582;2022-08-06T01:39:41;13.30;79.90
23591;DHT22;11973;52.098;7.582;2022-08-06T01:42:10;13.20;79.80
23591;DHT22;11973;52.098;7.582;2022-08-06T01:44:40;13.20;79.90
23591;DHT22;11973;52.098;7.582;2022-08-06T01:47:10;13.20;79.90
23591;DHT22;11973;52.098;7.582;2022-08-06T01:49:38;13.10;79.90
23591;DHT22;11973;52.098;7.582;2022-08-06T01:52:05;13.10;79.90
23591;DHT22;11973;52.098;7.582;2022-08-06T01:54:37;13.00;79.90
23591;DHT22;11973;52.098;7.582;2022-08-06T01:57:04;13.00;80.00
23591;DHT22;11973;52.098;7.582;2022-08-06T01:59:33;13.10;80.10
23591;DHT22;11973;52.098;7.582;2022-08-06T02:02:02;12.90;79.90
23591;DHT22;11973;52.098;7.582;2022-08-06T02:04:31;12.90;79.90
23591;DHT22;11973;52.098;7.582;2022-08-06T02:06:59;12.80;80.00
23591;DHT22;11973;52.098;7.582;2022-08-06T02:09:27;12.80;80.00
23591;DHT22;11973;52.098;7.582;2022-08-06T02:12:04;12.70;80.00
23591;DHT22;11973;52.098;7.582;2022-08-06T02:14:35;12.80;80.30
23591;DHT22;11973;52.098;7.582;2022-08-06T02:17:03;12.80;80.40
23591;DHT22;11973;52.098;7.582;2022-08-06T02:19:31;12.60;80.20
23591;DHT22;11973;52.098;7.582;2022-08-06T02:21:59;12.60;80.30
23591;DHT22;11973;52.098;7.582;2022-08-06T02:24:28;12.60;80.30
23591;DHT22;11973;52.098;7.582;2022-08-06T02:26:56;12.50;80.30
23591;DHT22;11973;52.098;7.582;2022-08-06T02:29:26;12.50;81.20
23591;DHT22;11973;52.098;7.582;2022-08-06T02:31:52;12.50;80.50
23591;DHT22;11973;52.098;7.582;2022-08-06T02:34:22;12.40;80.50
23591;DHT22;11973;52.098;7.582;2022-08-06T02:37:11;12.40;80.60
23591;DHT22;11973;52.098;7.582;2022-08-06T02:39:50;12.40;80.60
23591;DHT22;11973;52.098;7.582;2022-08-06T02:42:19;12.30;80.60
23591;DHT22;11973;52.098;7.582;2022-08-06T02:47:29;12.30;80.90
23591;DHT22;11973;52.098;7.582;2022-08-06T02:49:59;12.20;80.90
23591;DHT22;11973;52.098;7.582;2022-08-06T02:52:28;12.20;81.00
23591;DHT22;11973;52.098;7.582;2022-08-06T02:57:38;12.20;81.10
23591;DHT22;11973;52.098;7.582;2022-08-06T03:00:06;12.20;81.20
23591;DHT22;11973;52.098;7.582;2022-08-06T03:02:35;12.20;81.30
23591;DHT22;11973;52.098;7.582;2022-08-06T03:05:04;12.20;81.40
23591;DHT22;11973;52.098;7.582;2022-08-06T03:07:32;12.10;81.40
23591;DHT22;11973;52.098;7.582;2022-08-06T03:10:01;12.20;81.50
23591;DHT22;11973;52.098;7.582;2022-08-06T03:12:27;12.10;81.50
23591;DHT22;11973;52.098;7.582;2022-08-06T03:14:54;12.20;81.60
23591;DHT22;11973;52.098;7.582;2022-08-06T03:17:22;12.00;81.40
23591;DHT22;11973;52.098;7.582;2022-08-06T03:19:48;12.00;81.40
23591;DHT22;11973;52.098;7.582;2022-08-06T03:22:16;12.10;81.50
23591;DHT22;11973;52.098;7.582;2022-08-06T03:24:45;12.00;81.50
23591;DHT22;11973;52.098;7.582;2022-08-06T03:27:11;12.00;81.60
23591;DHT22;11973;52.098;7.582;2022-08-06T03:29:38;11.90;81.50
23591;DHT22;11973;52.098;7.582;2022-08-06T03:32:07;12.10;81.80
23591;DHT22;11973;52.098;7.582;2022-08-06T03:34:33;11.90;81.70
23591;DHT22;11973;52.098;7.582;2022-08-06T03:37:02;11.90;81.70
23591;DHT22;11973;52.098;7.582;2022-08-06T03:39:30;11.90;81.90
23591;DHT22;11973;52.098;7.582;2022-08-06T03:41:56;11.90;82.00
23591;DHT22;11973;52.098;7.582;2022-08-06T03:44:22;11.80;81.90
23591;DHT22;11973;52.098;7.582;2022-08-06T03:47:03;11.80;82.00
23591;DHT22;11973;52.098;7.582;2022-08-06T03:49:40;11.80;82.10
23591;DHT22;11973;52.098;7.582;2022-08-06T03:52:08;11.80;82.20
23591;DHT22;11973;52.098;7.582;2022-08-06T03:54:40;11.70;82.00
23591;DHT22;11973;52.098;7.582;2022-08-06T03:57:13;11.70;82.10
23591;DHT22;11973;52.098;7.582;2022-08-06T03:59:42;11.70;82.20
23591;DHT22;11973;52.098;7.582;2022-08-06T04:02:10;11.70;83.00
23591;DHT22;11973;52.098;7.582;2022-08-06T04:04:37;11.70;82.30
23591;DHT22;11973;52.098;7.582;2022-08-06T04:07:03;11.70;82.30
23591;DHT22;11973;52.098;7.582;2022-08-06T04:09:31;11.60;82.30
23591;DHT22;11973;52.098;7.582;2022-08-06T04:11:57;11.60;82.40
